createdAt,value
2018-09-12T00:01:57.197Z,3.80
2018-09-12T00:04:29.198Z,4.53
2018-09-12T00:07:01.237Z,4.10
2018-09-12T00:09:31.644Z,4.07
2018-09-12T00:12:02.576Z,3.73
2018-09-12T00:14:32.646Z,4.10
2018-09-12T00:17:04.554Z,3.67
2018-09-12T00:19:34.625Z,4.10
2018-09-12T00:22:07.145Z,4.43
2018-09-12T00:24:37.521Z,4.13
2018-09-12T00:27:09.229Z,4.20
2018-09-12T00:29:39.936Z,4.10
2018-09-12T00:32:11.548Z,4.60
2018-09-12T00:34:43.041Z,4.03
2018-09-12T00:37:14.694Z,4.07
2018-09-12T00:39:45.303Z,4.40
2018-09-12T00:42:15.895Z,4.07
2018-09-12T00:44:47.570Z,4.30
2018-09-12T00:47:19.206Z,4.03
2018-09-12T00:49:50.142Z,3.90
2018-09-12T00:52:21.763Z,4.50
2018-09-12T00:54:52.432Z,4.20
2018-09-12T00:57:23.478Z,4.13
2018-09-12T00:59:54.041Z,4.23
2018-09-12T01:02:24.779Z,4.23
2018-09-12T01:04:55.718Z,4.13
2018-09-12T01:07:27.121Z,4.27
2018-09-12T01:09:57.952Z,4.20
2018-09-12T01:12:28.728Z,3.73
2018-09-12T01:15:00.443Z,4.20
2018-09-12T01:17:32.243Z,4.20
2018-09-12T01:20:02.749Z,4.20
2018-09-12T01:22:34.766Z,3.97
2018-09-12T01:25:04.857Z,4.50
2018-09-12T01:27:35.196Z,4.67
2018-09-12T01:30:10.468Z,4.57
2018-09-12T01:32:40.609Z,4.13
2018-09-12T01:35:11.238Z,4.23
2018-09-12T01:37:42.280Z,4.67
2018-09-12T01:40:13.014Z,4.50
2018-09-12T01:42:45.458Z,4.23
2018-09-12T01:45:18.929Z,4.20
2018-09-12T01:47:50.271Z,3.93
2018-09-12T01:50:21.095Z,3.83
2018-09-12T01:52:52.329Z,4.40
2018-09-12T01:55:23.503Z,4.57
2018-09-12T01:57:54.456Z,3.80
2018-09-12T02:00:30.032Z,4.00
2018-09-12T02:03:00.725Z,4.00
2018-09-12T02:05:32.523Z,4.17
2018-09-12T02:08:04.173Z,4.13
2018-09-12T02:10:35.215Z,4.33
2018-09-12T02:13:06.127Z,4.50
2018-09-12T02:15:37.077Z,4.20
2018-09-12T02:18:08.220Z,4.00
2018-09-12T02:20:39.658Z,3.87
2018-09-12T02:23:10.835Z,4.20
2018-09-12T02:25:41.502Z,4.30
2018-09-12T02:28:13.901Z,4.40
2018-09-12T02:30:44.743Z,4.23
2018-09-12T02:33:15.743Z,4.17
2018-09-12T02:35:51.969Z,4.00
2018-09-12T02:38:22.703Z,4.43
2018-09-12T02:40:53.791Z,4.20
2018-09-12T02:43:26.059Z,4.33
2018-09-12T02:45:57.444Z,4.20
2018-09-12T02:48:27.758Z,4.20
2018-09-12T02:51:01.244Z,4.00
2018-09-12T02:53:33.489Z,4.43
2018-09-12T02:56:03.592Z,4.40
2018-09-12T02:58:34.413Z,4.47
2018-09-12T03:01:07.068Z,4.17
2018-09-12T03:03:37.491Z,4.23
2018-09-12T03:06:08.371Z,3.93
2018-09-12T03:08:39.150Z,4.17
2018-09-12T03:11:09.962Z,4.20
2018-09-12T03:13:41.939Z,4.37
2018-09-12T03:16:12.654Z,4.33
2018-09-12T03:18:43.388Z,4.10
2018-09-12T03:21:14.243Z,4.03
2018-09-12T03:23:45.042Z,4.20
2018-09-12T03:26:15.661Z,4.03
2018-09-12T03:28:47.846Z,4.13
2018-09-12T03:31:18.702Z,4.43
2018-09-12T03:33:49.530Z,4.30
2018-09-12T03:36:20.107Z,3.80
2018-09-12T03:38:51.359Z,4.20
2018-09-12T03:41:22.325Z,4.60
2018-09-12T03:43:53.058Z,4.53
2018-09-12T03:46:24.668Z,4.97
2018-09-12T03:48:55.631Z,4.30
2018-09-12T03:51:26.221Z,4.43
2018-09-12T03:53:56.948Z,4.50
2018-09-12T03:56:27.425Z,4.30
2018-09-12T03:58:58.445Z,4.00
2018-09-12T04:01:29.470Z,4.70
2018-09-12T04:04:00.498Z,4.20
2018-09-12T04:06:31.550Z,4.30
2018-09-12T04:09:02.924Z,4.20
2018-09-12T04:11:33.708Z,4.60
2018-09-12T04:14:04.599Z,4.50
2018-09-12T04:16:34.906Z,4.50
2018-09-12T04:19:06.009Z,4.50
2018-09-12T04:21:42.561Z,4.50
2018-09-12T04:24:14.519Z,4.23
2018-09-12T04:26:45.139Z,4.50
2018-09-12T04:29:16.013Z,4.83
2018-09-12T04:31:47.718Z,4.50
2018-09-12T04:34:18.541Z,5.23
2018-09-12T04:36:49.736Z,4.70
2018-09-12T04:39:21.525Z,4.73
2018-09-12T04:41:52.160Z,4.40
2018-09-12T04:44:22.769Z,4.43
2018-09-12T04:46:53.593Z,5.27
2018-09-12T04:49:31.972Z,4.57
2018-09-12T04:52:02.557Z,4.73
2018-09-12T04:54:32.546Z,4.67
2018-09-12T04:57:05.532Z,4.73
2018-09-12T04:59:36.729Z,4.60
2018-09-12T05:02:08.433Z,5.10
2018-09-12T05:04:39.210Z,4.63
2018-09-12T05:07:09.807Z,4.60
2018-09-12T05:09:42.493Z,4.50
2018-09-12T05:12:13.914Z,4.77
2018-09-12T05:14:45.694Z,4.97
2018-09-12T05:17:17.442Z,4.20
2018-09-12T05:19:48.590Z,4.67
2018-09-12T05:22:20.040Z,4.53
2018-09-12T05:24:51.159Z,5.00
2018-09-12T05:27:28.181Z,4.53
2018-09-12T05:30:12.454Z,4.70
2018-09-12T05:32:51.636Z,4.63
2018-09-12T05:35:23.486Z,5.13
2018-09-12T05:37:55.179Z,4.77
2018-09-12T05:40:26.501Z,4.70
2018-09-12T05:42:57.560Z,4.40
2018-09-12T05:45:28.104Z,5.27
2018-09-12T05:48:06.928Z,4.60
2018-09-12T05:50:38.876Z,4.67
2018-09-12T05:56:06.400Z,4.43
2018-09-12T05:59:02.915Z,4.67
2018-09-12T06:01:34.460Z,4.90
2018-09-12T06:04:06.120Z,5.13
2018-09-12T06:06:36.289Z,4.60
2018-09-12T06:09:27.993Z,4.90
2018-09-12T06:12:01.848Z,4.73
2018-09-12T06:14:36.748Z,5.23
2018-09-12T06:17:08.253Z,4.90
2018-09-12T06:19:38.456Z,5.17
2018-09-12T06:22:09.567Z,5.67
2018-09-12T06:24:39.708Z,6.80
2018-09-12T06:27:12.170Z,5.67
2018-09-12T06:29:52.774Z,5.90
2018-09-12T06:32:23.829Z,5.23
2018-09-12T06:34:58.692Z,5.33
2018-09-12T06:37:32.474Z,4.93
2018-09-12T06:40:03.240Z,5.60
2018-09-12T06:42:33.449Z,5.27
2018-09-12T06:45:03.545Z,5.07
2018-09-12T06:47:33.715Z,5.30
2018-09-12T06:50:04.937Z,5.37
2018-09-12T06:52:38.139Z,5.07
2018-09-12T06:55:11.539Z,5.20
2018-09-12T06:57:43.123Z,5.50
2018-09-12T07:00:13.920Z,5.20
2018-09-12T07:02:45.781Z,5.13
2018-09-12T07:05:17.893Z,5.53
2018-09-12T07:07:48.490Z,5.43
2018-09-12T07:13:07.376Z,5.33
2018-09-12T07:15:38.314Z,5.43
2018-09-12T07:18:10.060Z,5.70
2018-09-12T07:20:41.705Z,5.70
2018-09-12T07:23:12.380Z,5.13
2018-09-12T07:25:43.072Z,5.20
2018-09-12T07:28:16.719Z,5.07
2018-09-12T07:30:47.721Z,5.73
2018-09-12T07:33:20.217Z,5.00
2018-09-12T07:35:51.920Z,8.97
2018-09-12T07:38:24.145Z,11.63
2018-09-12T07:40:56.551Z,11.70
2018-09-12T07:43:29.157Z,8.47
2018-09-12T07:46:00.700Z,7.80
2018-09-12T07:48:35.352Z,6.70
2018-09-12T07:51:07.497Z,6.73
2018-09-12T07:53:46.848Z,6.03
2018-09-12T07:56:19.018Z,5.90
2018-09-12T07:58:53.241Z,5.87
2018-09-12T08:01:25.243Z,5.40
2018-09-12T08:03:57.844Z,5.40
2018-09-12T08:06:40.546Z,6.53
2018-09-12T08:09:13.541Z,5.83
2018-09-12T08:11:45.656Z,5.07
2018-09-12T08:14:17.870Z,6.07
2018-09-12T08:16:50.237Z,4.87
2018-09-12T08:19:22.461Z,4.83
2018-09-12T08:21:53.855Z,5.23
2018-09-12T08:24:28.363Z,4.50
2018-09-12T08:27:01.942Z,4.80
2018-09-12T08:29:32.681Z,4.90
2018-09-12T08:32:08.351Z,4.13
2018-09-12T08:34:41.081Z,4.70
2018-09-12T08:37:13.482Z,4.30
2018-09-12T08:39:44.732Z,4.57
2018-09-12T08:42:17.631Z,4.70
2018-09-12T08:44:48.813Z,4.53
2018-09-12T08:47:22.024Z,5.00
2018-09-12T08:49:54.512Z,4.53
2018-09-12T08:52:27.145Z,4.57
2018-09-12T08:55:01.979Z,4.23
2018-09-12T08:57:33.104Z,4.43
2018-09-12T09:00:05.517Z,4.70
2018-09-12T09:02:35.643Z,6.00
2018-09-12T09:05:08.196Z,4.37
2018-09-12T09:07:42.054Z,4.17
2018-09-12T09:10:15.745Z,4.90
2018-09-12T09:12:47.138Z,4.67
2018-09-12T09:15:19.386Z,4.70
2018-09-12T09:17:52.330Z,4.73
2018-09-12T09:20:30.147Z,4.33
2018-09-12T09:23:06.693Z,4.60
2018-09-12T09:25:41.237Z,4.73
2018-09-12T09:28:12.354Z,4.93
2018-09-12T09:30:44.693Z,5.13
2018-09-12T09:33:35.463Z,4.70
2018-09-12T09:36:09.496Z,5.37
2018-09-12T09:38:40.433Z,5.00
2018-09-12T09:41:13.713Z,4.93
2018-09-12T09:43:45.751Z,4.30
2018-09-12T09:46:17.701Z,5.17
2018-09-12T09:48:49.772Z,4.50
2018-09-12T09:51:30.622Z,5.00
2018-09-12T09:54:01.926Z,4.70
2018-09-12T09:56:35.029Z,4.70
2018-09-12T09:59:08.539Z,4.83
2018-09-12T10:01:43.881Z,4.33
2018-09-12T10:04:20.196Z,4.30
2018-09-12T10:06:54.890Z,4.10
2018-09-12T10:09:32.897Z,4.07
2018-09-12T10:12:04.110Z,3.87
2018-09-12T10:14:34.093Z,4.27
2018-09-12T10:17:03.484Z,4.00
2018-09-12T10:19:32.971Z,4.00
2018-09-12T10:22:02.464Z,3.80
2018-09-12T10:24:34.125Z,3.87
2018-09-12T10:27:03.614Z,4.03
2018-09-12T10:29:33.518Z,4.00
2018-09-12T10:32:03.118Z,3.90
2018-09-12T10:34:32.901Z,3.90
2018-09-12T10:37:03.363Z,3.57
2018-09-12T10:39:34.291Z,3.53
2018-09-12T10:42:03.781Z,3.60
2018-09-12T10:44:38.036Z,3.23
2018-09-12T10:47:14.795Z,2.90
2018-09-12T10:49:46.054Z,3.50
2018-09-12T10:52:15.495Z,2.90
2018-09-12T10:54:45.151Z,3.07
2018-09-12T10:57:14.741Z,3.00
2018-09-12T10:59:44.089Z,3.10
2018-09-12T11:02:20.521Z,2.83
2018-09-12T11:04:50.225Z,3.03
2018-09-12T11:07:21.342Z,3.37
2018-09-12T11:09:50.658Z,2.97
2018-09-12T11:12:36.812Z,3.20
2018-09-12T11:15:06.286Z,2.53
2018-09-12T11:17:54.870Z,3.43
2018-09-12T11:20:25.086Z,2.90
2018-09-12T11:22:54.183Z,3.23
2018-09-12T11:25:25.888Z,3.37
2018-09-12T11:27:55.694Z,3.50
2018-09-12T11:30:25.847Z,3.23
2018-09-12T11:33:00.407Z,3.50
2018-09-12T11:35:30.125Z,2.87
2018-09-12T11:38:02.482Z,3.03
2018-09-12T11:40:33.128Z,2.70
2018-09-12T11:43:03.836Z,4.40
2018-09-12T11:45:40.265Z,2.60
2018-09-12T11:48:09.865Z,2.83
2018-09-12T11:50:39.921Z,2.67
2018-09-12T11:53:10.952Z,3.10
2018-09-12T11:55:40.736Z,3.00
2018-09-12T11:58:11.188Z,3.07
2018-09-12T12:00:41.398Z,3.37
2018-09-12T12:03:15.517Z,2.97
2018-09-12T12:05:53.575Z,3.33
2018-09-12T12:08:24.335Z,3.00
2018-09-12T12:10:54.137Z,3.07
2018-09-12T12:13:24.801Z,2.80
2018-09-12T12:15:55.015Z,2.90
2018-09-12T12:18:30.301Z,3.10
2018-09-12T12:21:01.469Z,3.17
2018-09-12T12:23:32.465Z,3.10
2018-09-12T12:26:03.920Z,3.30
2018-09-12T12:28:35.476Z,3.17
2018-09-12T12:31:04.904Z,3.17
2018-09-12T12:33:35.143Z,3.00
2018-09-12T12:36:04.856Z,2.73
2018-09-12T12:38:37.819Z,3.30
2018-09-12T12:41:10.166Z,3.10
2018-09-12T12:43:41.199Z,3.27
2018-09-12T12:46:12.958Z,3.00
2018-09-12T12:48:43.611Z,3.03
2018-09-12T12:51:14.063Z,2.90
2018-09-12T12:53:44.698Z,2.90
2018-09-12T12:56:17.180Z,2.87
2018-09-12T12:58:47.433Z,2.70
2018-09-12T13:01:17.988Z,3.10
2018-09-12T13:03:51.705Z,3.07
2018-09-12T13:06:23.938Z,2.70
2018-09-12T13:08:54.965Z,3.07
2018-09-12T13:11:26.284Z,2.83
2018-09-12T13:13:56.565Z,2.90
2018-09-12T13:16:27.574Z,3.00
2018-09-12T13:18:59.873Z,3.00
2018-09-12T13:21:30.586Z,2.93
2018-09-12T13:24:04.530Z,3.00
2018-09-12T13:26:34.661Z,3.80
2018-09-12T13:29:06.388Z,2.47
2018-09-12T13:31:38.892Z,2.57
2018-09-12T13:34:10.025Z,2.90
2018-09-12T13:36:45.436Z,2.80
2018-09-12T13:39:33.960Z,2.77
2018-09-12T13:42:05.503Z,3.07
2018-09-12T13:44:36.313Z,3.03
2018-09-12T13:47:07.084Z,2.90
2018-09-12T13:49:39.653Z,3.20
2018-09-12T13:52:10.832Z,2.80
2018-09-12T13:54:41.560Z,3.13
2018-09-12T13:57:23.386Z,2.80
2018-09-12T13:59:56.565Z,2.70
2018-09-12T14:02:29.077Z,2.80
2018-09-12T14:05:23.236Z,2.90
2018-09-12T14:08:14.254Z,2.83
2018-09-12T14:10:46.504Z,2.80
2018-09-12T14:13:26.166Z,3.00
2018-09-12T14:15:57.571Z,2.60
2018-09-12T14:18:28.764Z,2.73
2018-09-12T14:20:59.766Z,2.50
2018-09-12T14:23:31.844Z,2.50
2018-09-12T14:26:03.007Z,2.70
2018-09-12T14:28:35.250Z,2.70
2018-09-12T14:31:06.491Z,2.70
2018-09-12T14:33:39.389Z,2.77
2018-09-12T14:36:11.471Z,2.90
2018-09-12T14:38:43.517Z,2.50
2018-09-12T14:41:15.442Z,2.40
2018-09-12T14:43:48.218Z,2.30
2018-09-12T14:46:19.944Z,2.70
2018-09-12T14:48:51.888Z,2.87
2018-09-12T14:51:23.082Z,2.67
2018-09-12T14:53:55.825Z,3.30
2018-09-12T14:56:27.758Z,3.30
2018-09-12T14:59:00.266Z,2.83
2018-09-12T15:01:32.147Z,2.77
2018-09-12T15:04:05.349Z,2.80
2018-09-12T15:06:36.923Z,2.80
2018-09-12T15:09:12.526Z,2.80
2018-09-12T15:11:44.370Z,2.60
2018-09-12T15:14:17.062Z,2.90
2018-09-12T15:16:49.304Z,2.77
2018-09-12T15:19:21.241Z,2.40
2018-09-12T15:21:53.368Z,2.90
2018-09-12T15:24:26.664Z,2.93
2018-09-12T15:26:58.874Z,2.87
2018-09-12T15:29:31.455Z,3.20
2018-09-12T15:32:03.581Z,3.10
2018-09-12T15:34:35.673Z,2.67
2018-09-12T15:37:07.937Z,2.50
2018-09-12T15:39:39.645Z,2.70
2018-09-12T15:42:14.897Z,3.00
2018-09-12T15:44:47.350Z,2.87
2018-09-12T15:47:19.969Z,3.00
2018-09-12T15:49:52.290Z,2.97
2018-09-12T15:52:24.731Z,3.00
2018-09-12T15:54:59.433Z,3.17
2018-09-12T15:57:32.713Z,2.70
2018-09-12T16:00:06.201Z,3.13
2018-09-12T16:02:39.495Z,3.07
2018-09-12T16:05:11.809Z,3.40
2018-09-12T16:07:44.266Z,3.00
2018-09-12T16:10:16.666Z,3.10
2018-09-12T16:12:52.755Z,3.43
2018-09-12T16:15:25.295Z,2.87
2018-09-12T16:17:58.285Z,3.17
2018-09-12T16:20:31.047Z,3.10
2018-09-12T16:23:04.001Z,3.27
2018-09-12T16:25:35.857Z,3.20
2018-09-12T16:28:08.425Z,3.23
2018-09-12T16:30:40.768Z,3.20
2018-09-12T16:33:15.376Z,3.33
2018-09-12T16:35:47.191Z,3.07
2018-09-12T16:38:22.442Z,3.33
2018-09-12T16:40:58.030Z,3.60
2018-09-12T16:43:31.614Z,3.10
2018-09-12T16:46:03.369Z,2.97
2018-09-12T16:48:39.108Z,3.10
2018-09-12T16:51:11.079Z,3.30
2018-09-12T16:53:45.725Z,3.17
2018-09-12T16:56:18.127Z,3.27
2018-09-12T16:58:51.005Z,3.30
2018-09-12T17:01:23.166Z,3.30
2018-09-12T17:03:56.252Z,3.50
2018-09-12T17:06:29.095Z,3.50
2018-09-12T17:09:01.981Z,3.30
2018-09-12T17:11:34.428Z,3.07
2018-09-12T17:14:05.943Z,3.63
2018-09-12T17:16:38.138Z,3.30
2018-09-12T17:19:10.515Z,3.63
2018-09-12T17:21:42.932Z,3.37
2018-09-12T17:24:15.351Z,3.60
2018-09-12T17:26:49.522Z,3.23
2018-09-12T17:29:21.357Z,3.20
2018-09-12T17:31:54.757Z,3.70
2018-09-12T17:34:27.963Z,3.50
2018-09-12T17:37:00.434Z,3.50
2018-09-12T17:39:32.218Z,3.63
2018-09-12T17:42:04.527Z,2.93
2018-09-12T17:44:37.912Z,3.07
2018-09-12T17:47:12.085Z,3.50
2018-09-12T17:49:43.995Z,3.47
2018-09-12T17:52:16.809Z,4.03
2018-09-12T17:54:48.831Z,3.50
2018-09-12T17:57:21.880Z,3.67
2018-09-12T17:59:55.259Z,3.37
2018-09-12T18:02:28.950Z,3.67
2018-09-12T18:05:02.003Z,3.60
2018-09-12T18:07:33.927Z,3.60
2018-09-12T18:10:05.980Z,3.13
2018-09-12T18:12:37.653Z,3.27
2018-09-12T18:15:09.975Z,3.40
2018-09-12T18:17:42.122Z,3.70
2018-09-12T18:20:14.350Z,3.57
2018-09-12T18:22:46.735Z,3.40
2018-09-12T18:25:21.512Z,3.37
2018-09-12T18:27:54.268Z,3.00
2018-09-12T18:30:27.273Z,3.43
2018-09-12T18:33:00.352Z,3.33
2018-09-12T18:35:32.509Z,3.50
2018-09-12T18:38:16.447Z,3.73
2018-09-12T18:40:49.894Z,3.50
2018-09-12T18:43:23.081Z,3.37
2018-09-12T18:45:58.269Z,3.83
2018-09-12T18:48:31.172Z,3.60
2018-09-12T18:51:07.392Z,3.60
2018-09-12T18:53:46.192Z,3.30
2018-09-12T18:56:34.167Z,3.80
2018-09-12T18:59:09.715Z,3.53
2018-09-12T19:01:52.897Z,3.67
2018-09-12T19:04:34.054Z,3.10
2018-09-12T19:07:06.451Z,3.60
2018-09-12T19:09:39.065Z,3.27
2018-09-12T19:12:12.094Z,3.63
2018-09-12T19:14:44.599Z,3.90
2018-09-12T19:17:16.956Z,3.50
2018-09-12T19:19:49.474Z,3.70
2018-09-12T19:22:22.379Z,3.80
2018-09-12T19:24:54.602Z,4.13
2018-09-12T19:27:27.606Z,4.20
2018-09-12T19:30:01.061Z,3.43
2018-09-12T19:32:33.139Z,3.77
2018-09-12T19:35:05.842Z,3.50
2018-09-12T19:37:38.078Z,3.67
2018-09-12T19:40:10.411Z,3.90
2018-09-12T19:42:43.802Z,3.70
2018-09-12T19:45:16.391Z,4.03
2018-09-12T19:47:50.578Z,3.90
2018-09-12T19:50:23.432Z,4.17
2018-09-12T19:52:55.829Z,4.03
2018-09-12T19:55:28.215Z,3.90
2018-09-12T19:58:01.080Z,3.63
2018-09-12T20:00:33.301Z,4.10
2018-09-12T20:03:05.483Z,3.73
2018-09-12T20:05:37.689Z,4.50
2018-09-12T20:08:09.913Z,3.97
2018-09-12T20:10:43.497Z,4.60
2018-09-12T20:13:17.461Z,5.03
2018-09-12T20:15:50.549Z,5.30
2018-09-12T20:18:23.467Z,5.50
2018-09-12T20:20:56.223Z,5.70
2018-09-12T20:23:29.760Z,6.00
2018-09-12T20:26:02.186Z,5.60
2018-09-12T20:28:41.554Z,4.57
2018-09-12T20:31:13.597Z,5.57
2018-09-12T20:33:45.845Z,6.37
2018-09-12T20:36:19.220Z,6.53
2018-09-12T20:38:51.361Z,6.70
2018-09-12T20:41:23.079Z,6.70
2018-09-12T20:43:54.963Z,6.70
2018-09-12T20:46:27.974Z,6.67
2018-09-12T20:48:59.585Z,6.97
2018-09-12T20:51:31.806Z,5.80
2018-09-12T20:54:04.958Z,6.10
2018-09-12T20:56:36.317Z,5.70
2018-09-12T20:59:08.508Z,5.73
2018-09-12T21:01:42.189Z,5.70
2018-09-12T21:04:16.124Z,5.37
2018-09-12T21:06:50.832Z,5.67
2018-09-12T21:09:21.358Z,5.20
2018-09-12T21:11:54.157Z,5.60
2018-09-12T21:14:25.129Z,5.63
2018-09-12T21:16:55.938Z,5.53
2018-09-12T21:19:26.549Z,5.50
2018-09-12T21:21:56.640Z,4.70
2018-09-12T21:24:28.013Z,5.33
2018-09-12T21:26:57.749Z,5.20
2018-09-12T21:29:27.445Z,5.33
2018-09-12T21:31:59.472Z,5.50
2018-09-12T21:34:29.076Z,5.60
2018-09-12T21:36:58.429Z,4.80
2018-09-12T21:39:28.003Z,5.40
2018-09-12T21:41:57.586Z,5.10
2018-09-12T21:44:27.360Z,5.20
2018-09-12T21:46:56.394Z,5.13
2018-09-12T21:49:27.244Z,5.33
2018-09-12T21:51:56.865Z,5.50
2018-09-12T21:54:26.225Z,5.80
2018-09-12T21:56:55.636Z,5.50
2018-09-12T21:59:26.198Z,5.37
2018-09-12T22:01:55.768Z,5.73
2018-09-12T22:04:25.276Z,5.57
2018-09-12T22:06:56.300Z,5.67
2018-09-12T22:09:25.743Z,5.97
2018-09-12T22:11:55.264Z,5.83
2018-09-12T22:14:25.627Z,6.20
2018-09-12T22:16:55.185Z,5.70
2018-09-12T22:19:24.668Z,5.73
2018-09-12T22:21:54.179Z,6.27
2018-09-12T22:24:23.638Z,6.40
2018-09-12T22:26:53.182Z,6.07
2018-09-12T22:29:23.563Z,6.50
2018-09-12T22:31:52.906Z,6.50
2018-09-12T22:34:22.520Z,6.47
2018-09-12T22:36:51.780Z,6.00
2018-09-12T22:39:22.149Z,5.53
2018-09-12T22:41:51.563Z,5.70
2018-09-12T22:44:20.870Z,5.87
2018-09-12T22:46:50.069Z,6.30
2018-09-12T22:49:20.339Z,5.83
2018-09-12T22:51:49.614Z,6.00
2018-09-12T22:54:19.194Z,6.10
2018-09-12T22:56:48.905Z,5.33
2018-09-12T22:59:19.213Z,6.23
2018-09-12T23:01:49.233Z,6.20
2018-09-12T23:04:19.608Z,6.17
2018-09-12T23:06:49.463Z,6.30
2018-09-12T23:09:18.959Z,6.37
2018-09-12T23:11:49.127Z,6.00
2018-09-12T23:14:18.511Z,5.80
2018-09-12T23:16:48.495Z,6.23
2018-09-12T23:19:18.589Z,5.83
2018-09-12T23:21:47.980Z,6.47
2018-09-12T23:24:17.793Z,6.70
2018-09-12T23:26:47.283Z,6.20
2018-09-12T23:29:16.395Z,6.17
2018-09-12T23:31:45.687Z,6.90
2018-09-12T23:34:14.999Z,6.20
2018-09-12T23:36:43.937Z,6.20
2018-09-12T23:39:14.351Z,6.00
2018-09-12T23:41:43.761Z,6.67
2018-09-12T23:44:13.085Z,7.83
2018-09-12T23:46:44.244Z,7.90
2018-09-12T23:49:14.292Z,7.23
2018-09-12T23:51:43.713Z,7.07
2018-09-12T23:54:13.946Z,7.40
2018-09-12T23:56:48.765Z,6.87
2018-09-12T23:59:18.042Z,7.90
